createdAt,value
2018-09-26T00:00:55.760Z,3.63
2018-09-26T00:05:36.635Z,4.00
2018-09-26T00:10:16.796Z,4.70
2018-09-26T00:14:56.566Z,4.10
2018-09-26T00:19:36.483Z,3.53
2018-09-26T00:24:16.533Z,3.60
2018-09-26T00:28:56.497Z,4.00
2018-09-26T00:33:37.880Z,3.90
2018-09-26T00:38:18.049Z,4.10
2018-09-26T00:42:58.017Z,3.97
2018-09-26T00:47:37.656Z,3.73
2018-09-26T00:52:18.920Z,3.37
2018-09-26T00:56:59.685Z,4.70
2018-09-26T01:01:39.540Z,3.80
2018-09-26T01:06:19.640Z,3.13
2018-09-26T01:10:59.549Z,3.33
2018-09-26T01:15:39.777Z,3.90
2018-09-26T01:20:19.897Z,2.97
2018-09-26T01:25:00.918Z,3.17
2018-09-26T01:29:42.105Z,2.80
2018-09-26T01:34:22.100Z,3.10
2018-09-26T01:39:02.056Z,3.97
2018-09-26T01:43:42.022Z,2.90
2018-09-26T01:48:21.732Z,4.33
2018-09-26T01:53:01.849Z,4.10
2018-09-26T01:57:41.670Z,3.20
2018-09-26T02:02:21.708Z,2.70
2018-09-26T02:07:02.196Z,3.07
2018-09-26T02:11:42.292Z,2.70
2018-09-26T02:16:22.265Z,3.30
2018-09-26T02:21:02.218Z,3.40
2018-09-26T02:25:43.037Z,2.90
2018-09-26T02:30:22.889Z,2.97
2018-09-26T02:35:02.843Z,3.50
2018-09-26T02:39:42.773Z,3.90
2018-09-26T02:44:22.739Z,3.67
2018-09-26T02:49:04.650Z,3.60
2018-09-26T02:53:45.589Z,3.73
2018-09-26T02:58:27.042Z,4.90
2018-09-26T03:03:07.132Z,4.47
2018-09-26T03:07:47.473Z,3.83
2018-09-26T03:12:27.887Z,3.97
2018-09-26T03:17:08.051Z,4.00
2018-09-26T03:21:49.269Z,4.10
2018-09-26T03:26:29.518Z,4.30
2018-09-26T03:31:09.276Z,4.60
2018-09-26T03:35:49.357Z,4.40
2018-09-26T03:40:29.780Z,12.60
2018-09-26T03:45:09.905Z,33.27
2018-09-26T03:49:50.304Z,5.37
2018-09-26T03:54:30.817Z,8.10
2018-09-26T03:59:10.612Z,11.17
2018-09-26T04:03:51.112Z,7.00
2018-09-26T04:08:31.106Z,5.23
2018-09-26T04:13:11.218Z,4.30
2018-09-26T04:17:52.050Z,6.20
2018-09-26T04:22:32.442Z,30.20
2018-09-26T04:27:12.282Z,6.13
2018-09-26T04:31:52.086Z,6.03
2018-09-26T04:36:32.253Z,5.17
2018-09-26T04:41:12.411Z,5.60
2018-09-26T04:45:53.001Z,5.30
2018-09-26T04:50:32.866Z,5.40
2018-09-26T04:55:12.796Z,22.07
2018-09-26T04:59:52.828Z,40.97
2018-09-26T05:04:33.500Z,21.53
2018-09-26T05:09:15.032Z,11.13
2018-09-26T05:13:55.061Z,9.50
2018-09-26T05:18:36.058Z,13.33
2018-09-26T05:23:15.977Z,7.73
2018-09-26T05:27:57.312Z,6.53
2018-09-26T05:32:37.380Z,5.37
2018-09-26T05:37:17.643Z,8.53
2018-09-26T05:41:57.888Z,5.03
2018-09-26T05:46:38.821Z,5.27
2018-09-26T05:51:20.277Z,4.73
2018-09-26T05:56:00.324Z,6.57
2018-09-26T06:00:41.239Z,7.10
2018-09-26T06:05:20.956Z,6.17
2018-09-26T06:10:00.944Z,6.27
2018-09-26T06:14:41.381Z,5.60
2018-09-26T06:19:21.875Z,6.90
2018-09-26T06:24:02.473Z,6.90
2018-09-26T06:28:43.001Z,8.73
2018-09-26T06:33:23.833Z,6.73
2018-09-26T06:38:03.744Z,6.90
2018-09-26T06:42:44.277Z,5.83
2018-09-26T06:47:24.168Z,6.03
2018-09-26T06:52:04.242Z,5.80
2018-09-26T06:56:44.180Z,6.23
2018-09-26T07:01:24.654Z,5.57
2018-09-26T07:06:04.348Z,5.47
2018-09-26T07:10:44.476Z,4.80
2018-09-26T07:15:25.378Z,4.87
2018-09-26T07:20:05.604Z,10.03
2018-09-26T07:24:45.585Z,5.97
2018-09-26T07:29:26.197Z,5.85
2018-09-26T07:34:07.252Z,15.28
2018-09-26T07:38:47.796Z,5.60
2018-09-26T07:43:28.184Z,7.90
2018-09-26T07:48:08.633Z,12.40
2018-09-26T07:52:48.727Z,5.12
2018-09-26T07:57:28.664Z,4.67
2018-09-26T08:02:08.661Z,5.83
2018-09-26T08:06:48.480Z,4.87
2018-09-26T08:11:28.400Z,5.58
2018-09-26T08:16:09.281Z,4.03
2018-09-26T08:20:49.156Z,3.20
2018-09-26T08:25:29.754Z,3.12
2018-09-26T08:30:09.663Z,2.72
2018-09-26T08:34:49.749Z,3.90
2018-09-26T08:39:30.547Z,6.75
2018-09-26T08:44:11.258Z,9.85
2018-09-26T08:48:51.196Z,9.28
2018-09-26T08:53:31.251Z,7.40
2018-09-26T08:58:11.932Z,3.35
2018-09-26T09:02:52.269Z,3.10
2018-09-26T09:07:32.335Z,3.05
2018-09-26T09:12:12.462Z,3.55
2018-09-26T09:16:52.145Z,3.30
2018-09-26T09:21:32.017Z,2.92
2018-09-26T09:26:12.300Z,2.37
2018-09-26T09:30:52.189Z,2.20
2018-09-26T09:35:32.264Z,2.52
2018-09-26T09:40:12.552Z,2.58
2018-09-26T09:44:53.308Z,2.40
2018-09-26T09:49:33.805Z,2.85
2018-09-26T09:54:14.350Z,1.90
2018-09-26T09:58:54.421Z,2.17
2018-09-26T10:03:34.400Z,2.17
2018-09-26T10:08:14.557Z,2.17
2018-09-26T10:12:54.663Z,2.30
2018-09-26T10:17:35.348Z,2.17
2018-09-26T10:22:15.438Z,2.08
2018-09-26T10:26:55.688Z,2.30
2018-09-26T10:31:36.325Z,1.77
2018-09-26T10:36:16.404Z,1.90
2018-09-26T10:40:56.370Z,1.70
2018-09-26T10:45:36.291Z,2.92
2018-09-26T10:50:16.455Z,1.52
2018-09-26T10:54:56.304Z,1.90
2018-09-26T10:59:37.378Z,1.82
2018-09-26T11:04:17.326Z,1.98
2018-09-26T11:08:57.461Z,2.00
2018-09-26T11:13:38.092Z,2.90
2018-09-26T11:18:18.471Z,5.55
2018-09-26T11:22:59.238Z,14.98
2018-09-26T11:27:39.326Z,2.83
2018-09-26T11:32:19.482Z,2.12
2018-09-26T11:37:00.173Z,1.87
2018-09-26T11:41:40.242Z,1.80
2018-09-26T11:46:20.261Z,1.80
2018-09-26T11:51:01.288Z,1.70
2018-09-26T11:55:41.327Z,1.98
2018-09-26T12:00:21.973Z,1.70
2018-09-26T12:05:01.952Z,1.92
2018-09-26T12:09:41.993Z,1.47
2018-09-26T12:14:22.178Z,1.60
2018-09-26T12:19:01.969Z,1.50
2018-09-26T12:23:42.082Z,1.90
2018-09-26T12:28:22.220Z,1.80
2018-09-26T12:33:02.325Z,1.65
2018-09-26T12:37:42.801Z,1.55
2018-09-26T12:42:24.115Z,1.45
2018-09-26T12:47:04.096Z,1.65
2018-09-26T12:51:44.321Z,1.20
2018-09-26T12:56:24.382Z,1.50
2018-09-26T13:01:04.524Z,1.55
2018-09-26T13:05:47.787Z,1.87
2018-09-26T13:10:27.637Z,1.52
2018-09-26T13:15:08.253Z,2.92
2018-09-26T13:19:48.094Z,1.40
2018-09-26T13:24:28.090Z,1.55
2018-09-26T13:29:09.301Z,1.32
2018-09-26T13:33:50.378Z,1.62
2018-09-26T13:38:30.346Z,1.40
2018-09-26T13:43:10.900Z,1.80
2018-09-26T13:47:51.829Z,2.08
2018-09-26T13:52:33.092Z,1.77
2018-09-26T13:57:14.057Z,1.52
2018-09-26T14:01:54.977Z,1.52
2018-09-26T14:06:35.050Z,1.72
2018-09-26T14:11:15.218Z,1.87
2018-09-26T14:15:56.975Z,1.40
2018-09-26T14:20:37.998Z,2.20
2018-09-26T14:25:17.989Z,1.75
2018-09-26T14:29:58.844Z,1.60
2018-09-26T14:34:38.711Z,2.00
2018-09-26T14:39:18.812Z,1.50
2018-09-26T14:43:58.982Z,2.00
2018-09-26T14:48:39.696Z,1.65
2018-09-26T14:53:20.785Z,1.90
2018-09-26T14:58:02.143Z,1.65
2018-09-26T15:02:42.244Z,1.60
2018-09-26T15:07:22.143Z,7.62
2018-09-26T15:12:02.012Z,2.33
2018-09-26T15:16:43.092Z,2.55
2018-09-26T15:21:23.486Z,3.30
2018-09-26T15:26:03.334Z,2.60
2018-09-26T15:30:43.498Z,2.50
2018-09-26T15:35:23.447Z,3.67
2018-09-26T15:40:03.436Z,3.10
2018-09-26T15:44:43.505Z,1.90
2018-09-26T15:49:24.923Z,1.85
2018-09-26T15:54:05.032Z,1.77
2018-09-26T15:58:45.083Z,1.90
2018-09-26T16:03:25.182Z,1.62
2018-09-26T16:08:05.152Z,1.85
2018-09-26T16:12:45.454Z,1.52
2018-09-26T16:17:25.630Z,1.65
2018-09-26T16:22:06.111Z,1.80
2018-09-26T16:26:46.382Z,2.30
2018-09-26T16:31:26.365Z,4.05
2018-09-26T16:36:07.113Z,20.68
2018-09-26T16:40:47.496Z,11.15
2018-09-26T16:45:27.834Z,12.07
2018-09-26T16:50:08.690Z,8.50
2018-09-26T16:54:49.822Z,8.73
2018-09-26T16:59:29.604Z,5.90
2018-09-26T17:04:09.554Z,4.40
2018-09-26T17:08:49.509Z,3.77
2018-09-26T17:13:29.625Z,4.97
2018-09-26T17:18:09.879Z,6.15
2018-09-26T17:22:49.890Z,5.10
2018-09-26T17:27:30.285Z,4.83
2018-09-26T17:32:10.189Z,20.40
2018-09-26T17:36:50.268Z,96.90
2018-09-26T17:41:30.126Z,138.32
2018-09-26T17:46:10.395Z,39.00
2018-09-26T17:50:50.624Z,15.08
2018-09-26T17:55:31.186Z,11.10
2018-09-26T18:00:11.105Z,9.10
2018-09-26T18:04:51.016Z,13.93
2018-09-26T18:09:31.130Z,8.98
2018-09-26T18:14:11.569Z,9.40
2018-09-26T18:18:51.325Z,11.70
2018-09-26T18:23:31.290Z,9.83
2018-09-26T18:28:11.293Z,45.80
2018-09-26T18:32:51.272Z,96.17
2018-09-26T18:37:31.138Z,36.30
2018-09-26T18:42:11.199Z,12.53
2018-09-26T18:46:51.117Z,13.28
2018-09-26T18:51:31.218Z,9.63
2018-09-26T18:56:11.460Z,7.58
2018-09-26T19:00:51.576Z,9.05
2018-09-26T19:05:31.549Z,13.78
2018-09-26T19:10:11.735Z,12.40
2018-09-26T19:14:51.900Z,9.80
2018-09-26T19:19:31.597Z,11.50
2018-09-26T19:24:12.396Z,12.80
2018-09-26T19:28:53.076Z,9.78
2018-09-26T19:33:34.411Z,7.87
2018-09-26T19:38:14.376Z,6.60
2018-09-26T19:42:54.436Z,6.53
2018-09-26T19:47:35.360Z,5.63
2018-09-26T19:52:15.256Z,7.77
2018-09-26T19:56:55.740Z,12.00
2018-09-26T20:01:35.622Z,13.37
2018-09-26T20:06:15.494Z,12.50
2018-09-26T20:10:56.328Z,8.13
2018-09-26T20:15:36.119Z,14.53
2018-09-26T20:20:16.315Z,16.63
2018-09-26T20:24:56.039Z,8.67
2018-09-26T20:29:36.514Z,8.43
2018-09-26T20:34:16.228Z,8.60
2018-09-26T20:38:56.568Z,9.10
2018-09-26T20:43:36.405Z,7.10
2018-09-26T20:48:16.422Z,8.33
2018-09-26T20:52:57.205Z,8.13
2018-09-26T20:57:38.545Z,8.80
2018-09-26T21:02:18.501Z,8.63
2018-09-26T21:06:58.833Z,7.60
2018-09-26T21:11:39.307Z,9.63
2018-09-26T21:16:19.372Z,10.80
2018-09-26T21:20:59.204Z,8.70
2018-09-26T21:25:39.106Z,7.50
2018-09-26T21:30:19.649Z,7.20
2018-09-26T21:35:00.436Z,6.77
2018-09-26T21:39:40.266Z,6.23
2018-09-26T21:44:20.108Z,5.00
2018-09-26T21:49:00.561Z,4.23
2018-09-26T21:53:40.822Z,4.37
2018-09-26T21:58:20.518Z,4.27
2018-09-26T22:03:01.047Z,4.10
2018-09-26T22:07:41.655Z,4.30
2018-09-26T22:12:21.737Z,4.60
2018-09-26T22:17:01.776Z,6.10
2018-09-26T22:21:45.366Z,4.60
2018-09-26T22:26:26.661Z,5.10
2018-09-26T22:31:07.187Z,7.00
2018-09-26T22:35:47.896Z,7.33
2018-09-26T22:40:29.701Z,9.53
2018-09-26T22:45:10.228Z,19.17
2018-09-26T22:49:50.101Z,14.07
2018-09-26T22:54:30.489Z,14.87
2018-09-26T22:59:11.105Z,24.70
2018-09-26T23:03:51.104Z,23.97
2018-09-26T23:08:31.133Z,27.17
2018-09-26T23:13:11.278Z,23.00
2018-09-26T23:17:51.369Z,28.33
2018-09-26T23:22:31.190Z,11.07
2018-09-26T23:27:11.532Z,9.67
2018-09-26T23:31:52.282Z,10.97
2018-09-26T23:36:32.480Z,27.23
2018-09-26T23:41:13.051Z,10.20
2018-09-26T23:45:53.037Z,27.80
2018-09-26T23:50:33.132Z,24.10
2018-09-26T23:55:13.732Z,24.30
2018-09-26T23:59:53.601Z,8.53
